»·PEaware :: N5002T KOXR-KBUR

N5002T :: KOXR-KBUR

FLIGHT INFORMATION

Flight Status: Arrived
Operator: Privately registered:
United States
More flights under this callsign
Pilot: Hunter M. (19355)
Aircraft: CESSNA 172 SKYHAWK
(C172)
More flights by this aircraft type
Origin: KOXR Oxnard
United States
Destination: KBUR Bob Hope-Burbank
United States
More flights between these airports :: More routes between these airports
Route: VTU054 TOAKS
File this flight plan on PilotEdge
Remarks:
Altitude:
(Current/Filed)
5,000ft
Speed:
(Current/Filed)
118kts
Departed: 27-Jan-19 01:11 PM
Arrived: 27-Jan-19 01:44 PM
Distance/Time
Traveled:
42nm/0:32
Distance/Time
To Go:
Arrived

Flight Plot

Page will automatically refresh every two minutes.


Map Options




Map Legend


Flown Route
Filed Route
Departure Airport
Arrival Airport
Navaid (VOR, NDB)
Fix

Horizontal Profiles

Position Reports

Time Latitude Longitude Heading Altitude Ground
Speed
27-Jan-19 12:46 34.198097 -119.200892 269 46ft 0kts
27-Jan-19 12:47 34.198097 -119.200892 269 46ft 0kts
27-Jan-19 12:48 34.198097 -119.200892 269 46ft 0kts
27-Jan-19 12:49 34.198097 -119.200892 269 46ft 0kts
27-Jan-19 12:50 34.198097 -119.200892 269 46ft 0kts
27-Jan-19 12:51 34.198097 -119.200892 269 46ft 0kts
27-Jan-19 12:52 34.198097 -119.200892 269 46ft 0kts
27-Jan-19 12:53 34.198097 -119.200892 269 46ft 0kts
27-Jan-19 12:54 34.198097 -119.200892 269 46ft 0kts
27-Jan-19 12:55 34.198097 -119.200892 269 46ft 0kts
27-Jan-19 12:56 34.198097 -119.200892 269 46ft 0kts
27-Jan-19 12:57 34.198097 -119.200892 269 46ft 0kts
27-Jan-19 12:58 34.198097 -119.200892 269 46ft 0kts
27-Jan-19 12:59 34.198097 -119.200892 269 46ft 0kts
27-Jan-19 13:00 34.198097 -119.200892 269 46ft 0kts
27-Jan-19 13:01 34.198097 -119.200892 269 46ft 0kts
27-Jan-19 13:02 34.198097 -119.200892 269 46ft 0kts
27-Jan-19 13:03 34.198097 -119.200892 269 46ft 0kts
27-Jan-19 13:04 34.198097 -119.200892 269 46ft 0kts
27-Jan-19 13:05 34.198451 -119.200370 80 46ft 9kts
27-Jan-19 13:06 34.199649 -119.199396 91 46ft 8kts
27-Jan-19 13:07 34.200054 -119.198106 0 46ft 0kts
27-Jan-19 13:08 34.200054 -119.198106 0 46ft 0kts
27-Jan-19 13:09 34.200070 -119.198105 0 46ft 1kts
27-Jan-19 13:10 34.200766 -119.207912 269 93ft 88kts
27-Jan-19 13:11 34.199578 -119.239492 264 862ft 97kts
27-Jan-19 13:12 34.197488 -119.272588 264 1561ft 100kts
27-Jan-19 13:13 34.181572 -119.288352 146 2222ft 82kts
27-Jan-19 13:14 34.176673 -119.265491 69 2828ft 67kts
27-Jan-19 13:15 34.181813 -119.242022 75 3421ft 86kts
27-Jan-19 13:16 34.174503 -119.209944 103 3862ft 108kts
27-Jan-19 13:17 34.163087 -119.175269 103 4182ft 112kts
27-Jan-19 13:18 34.151411 -119.140614 114 4506ft 112kts
27-Jan-19 13:19 34.138011 -119.106833 114 4880ft 108kts
27-Jan-19 13:20 34.124445 -119.072795 114 4998ft 114kts
27-Jan-19 13:21 34.125733 -119.038089 65 5004ft 107kts
27-Jan-19 13:22 34.135904 -119.003966 65 5002ft 107kts
27-Jan-19 13:23 34.146034 -118.969980 65 5001ft 107kts
27-Jan-19 13:24 34.156170 -118.935840 65 5000ft 107kts
27-Jan-19 13:25 34.166286 -118.901762 65 4999ft 107kts
27-Jan-19 13:26 34.176409 -118.867644 65 4998ft 108kts
27-Jan-19 13:27 34.186552 -118.833411 65 4999ft 108kts
27-Jan-19 13:28 34.196680 -118.799192 65 5003ft 108kts
27-Jan-19 13:29 34.202619 -118.763818 88 5008ft 110kts
27-Jan-19 13:30 34.201993 -118.725611 88 4608ft 116kts
27-Jan-19 13:31 34.201452 -118.686270 87 4026ft 116kts
27-Jan-19 13:32 34.201511 -118.648602 87 3677ft 101kts
27-Jan-19 13:33 34.201153 -118.615883 87 3696ft 96kts
27-Jan-19 13:34 34.200673 -118.582395 88 3359ft 106kts
27-Jan-19 13:35 34.200286 -118.546910 88 2964ft 96kts
27-Jan-19 13:36 34.199827 -118.517852 87 2977ft 80kts
27-Jan-19 13:37 34.199506 -118.489563 87 2779ft 89kts
27-Jan-19 13:39 34.199156 -118.463235 86 2304ft 71kts
27-Jan-19 13:40 34.198864 -118.440698 89 1975ft 64kts
27-Jan-19 13:41 34.198424 -118.417938 90 1608ft 71kts
27-Jan-19 13:42 34.198478 -118.396996 86 1249ft 56kts
27-Jan-19 13:43 34.198034 -118.376875 88 986ft 58kts
27-Jan-19 13:44 34.197822 -118.364743 113 781ft 10kts
27-Jan-19 13:45 34.196756 -118.364614 243 781ft 11kts
27-Jan-19 13:46 34.195779 -118.365152 180 781ft 0kts

Navigation Log

Ident Type
Flight plan parsing failed, navigation log unavailable